Time,TemperatureF,DewpointF,PressureIn,WindDirection,WindDirectionDegrees,WindSpeedMPH,WindSpeedGustMPH,Humidity,HourlyPrecipIn,Conditions,Clouds,dailyrainin,SolarRadiationWatts/m^2,SoftwareType,DateUTC
2013-01-03 00:09:00,41.0,24.0,30.41,West,272,0.0,-999.0,52,-99.99,,,0.00,0,weatherlink.com 1.10,2013-01-03 08:09:00,
2013-01-03 00:24:00,40.9,25.0,30.41,West,272,0.0,-999.0,54,-99.99,,,0.00,0,weatherlink.com 1.10,2013-01-03 08:24:00,
2013-01-03 00:39:00,40.5,25.0,30.41,West,272,0.0,-999.0,55,-99.99,,,0.00,0,weatherlink.com 1.10,2013-01-03 08:39:00,
2013-01-03 00:54:00,40.8,26.0,30.41,West,272,0.0,-999.0,55,-99.99,,,0.00,0,weatherlink.com 1.10,2013-01-03 08:54:00,
2013-01-03 01:09:00,41.5,25.0,30.42,West,272,0.0,-999.0,52,-99.99,,,0.00,0,weatherlink.com 1.10,2013-01-03 09:09:00,
2013-01-03 01:24:00,41.5,24.0,30.42,West,272,0.0,-999.0,50,-99.99,,,0.00,0,weatherlink.com 1.10,2013-01-03 09:24:00,
2013-01-03 01:39:00,40.9,25.0,30.41,West,272,0.0,-999.0,53,-99.99,,,0.00,0,weatherlink.com 1.10,2013-01-03 09:39:00,
2013-01-03 01:54:00,41.1,24.0,30.41,West,272,0.0,-999.0,50,-99.99,,,0.00,0,weatherlink.com 1.10,2013-01-03 09:54:00,
2013-01-03 02:09:00,41.4,24.0,30.41,West,272,0.0,-999.0,50,-99.99,,,0.00,0,weatherlink.com 1.10,2013-01-03 10:09:00,
2013-01-03 02:24:00,40.2,24.0,30.41,West,272,0.0,-999.0,52,-99.99,,,0.00,0,weatherlink.com 1.10,2013-01-03 10:24:00,
2013-01-03 02:39:00,40.5,23.0,30.41,West,272,0.0,-999.0,50,-99.99,,,0.00,0,weatherlink.com 1.10,2013-01-03 10:39:00,
2013-01-03 02:54:00,40.8,22.0,30.41,West,272,0.0,-999.0,48,-99.99,,,0.00,0,weatherlink.com 1.10,2013-01-03 10:54:00,
2013-01-03 03:09:00,41.6,22.0,30.41,West,272,0.0,-999.0,45,-99.99,,,0.00,0,weatherlink.com 1.10,2013-01-03 11:09:00,
2013-01-03 03:24:00,41.6,23.0,30.41,West,272,0.0,-999.0,47,-99.99,,,0.00,0,weatherlink.com 1.10,2013-01-03 11:24:00,
2013-01-03 03:39:00,41.5,21.0,30.41,West,273,0.0,-999.0,44,-99.99,,,0.00,0,weatherlink.com 1.10,2013-01-03 11:39:00,
2013-01-03 03:54:00,42.5,21.0,30.40,West,272,0.0,-999.0,42,-99.99,,,0.00,0,weatherlink.com 1.10,2013-01-03 11:54:00,
2013-01-03 04:09:00,43.1,20.0,30.41,West,273,0.0,-999.0,40,-99.99,,,0.00,0,weatherlink.com 1.10,2013-01-03 12:09:00,
2013-01-03 04:24:00,43.1,21.0,30.42,West,272,0.0,-999.0,42,-99.99,,,0.00,0,weatherlink.com 1.10,2013-01-03 12:24:00,
2013-01-03 04:39:00,42.8,22.0,30.42,West,273,0.0,-999.0,44,-99.99,,,0.00,0,weatherlink.com 1.10,2013-01-03 12:39:00,
2013-01-03 04:54:00,43.9,22.0,30.41,West,272,0.0,-999.0,42,-99.99,,,0.00,0,weatherlink.com 1.10,2013-01-03 12:54:00,
2013-01-03 05:09:00,44.8,20.0,30.42,West,272,0.0,-999.0,38,-99.99,,,0.00,0,weatherlink.com 1.10,2013-01-03 13:09:00,
2013-01-03 05:24:00,45.7,20.0,30.42,West,272,0.0,-999.0,36,-99.99,,,0.00,0,weatherlink.com 1.10,2013-01-03 13:24:00,
2013-01-03 05:39:00,47.0,20.0,30.43,West,272,0.0,-999.0,34,-99.99,,,0.00,0,weatherlink.com 1.10,2013-01-03 13:39:00,
2013-01-03 05:54:00,46.1,22.0,30.43,West,272,0.0,-999.0,38,-99.99,,,0.00,0,weatherlink.com 1.10,2013-01-03 13:54:00,
2013-01-03 06:09:00,44.9,22.0,30.43,West,273,0.0,-999.0,40,-99.99,,,0.00,0,weatherlink.com 1.10,2013-01-03 14:09:00,
2013-01-03 06:24:00,43.9,20.0,30.44,West,272,0.0,-999.0,39,-99.99,,,0.00,0,weatherlink.com 1.10,2013-01-03 14:24:00,
2013-01-03 06:39:00,43.8,21.0,30.45,West,272,0.0,-999.0,40,-99.99,,,0.00,0,weatherlink.com 1.10,2013-01-03 14:39:00,
2013-01-03 06:54:00,44.5,18.0,30.45,West,273,0.0,-999.0,35,-99.99,,,0.00,7,weatherlink.com 1.10,2013-01-03 14:54:00,
2013-01-03 07:10:00,47.8,18.0,30.46,West,273,0.0,-999.0,31,-99.99,,,0.00,14,weatherlink.com 1.10,2013-01-03 15:10:00,
2013-01-03 07:25:00,50.1,18.0,30.47,West,272,0.0,-999.0,28,-99.99,,,0.00,40,weatherlink.com 1.10,2013-01-03 15:25:00,
2013-01-03 07:40:00,50.0,25.0,30.48,West,272,0.0,-999.0,38,-99.99,,,0.00,76,weatherlink.com 1.10,2013-01-03 15:40:00,
2013-01-03 07:55:00,49.6,23.0,30.48,West,272,0.0,-999.0,36,-99.99,,,0.00,125,weatherlink.com 1.10,2013-01-03 15:55:00,
2013-01-03 08:10:00,52.1,21.0,30.48,West,273,0.0,-999.0,29,-99.99,,,0.00,178,weatherlink.com 1.10,2013-01-03 16:10:00,
2013-01-03 08:25:00,54.2,22.0,30.48,West,272,0.0,-999.0,29,-99.99,,,0.00,230,weatherlink.com 1.10,2013-01-03 16:25:00,
2013-01-03 08:40:00,55.3,24.0,30.49,West,272,0.0,-999.0,30,-99.99,,,0.00,271,weatherlink.com 1.10,2013-01-03 16:40:00,
2013-01-03 08:55:00,55.9,28.0,30.50,West,273,1.0,-999.0,34,-99.99,,,0.00,315,weatherlink.com 1.10,2013-01-03 16:55:00,
2013-01-03 09:10:00,56.9,26.0,30.51,West,272,0.0,-999.0,30,-99.99,,,0.00,352,weatherlink.com 1.10,2013-01-03 17:10:00,
2013-01-03 09:25:00,58.5,25.0,30.52,West,272,0.0,-999.0,28,-99.99,,,0.00,383,weatherlink.com 1.10,2013-01-03 17:25:00,
2013-01-03 09:40:00,59.5,23.0,30.53,West,272,0.0,-999.0,25,-99.99,,,0.00,417,weatherlink.com 1.10,2013-01-03 17:40:00,
2013-01-03 09:55:00,60.6,24.0,30.53,West,272,0.0,-999.0,25,-99.99,,,0.00,445,weatherlink.com 1.10,2013-01-03 17:55:00,
2013-01-03 10:10:00,62.1,24.0,30.53,West,272,0.0,-999.0,23,-99.99,,,0.00,468,weatherlink.com 1.10,2013-01-03 18:10:00,
2013-01-03 10:25:00,63.6,23.0,30.53,West,273,0.0,-999.0,21,-99.99,,,0.00,489,weatherlink.com 1.10,2013-01-03 18:25:00,
2013-01-03 10:41:00,64.8,24.0,30.52,West,272,0.0,-999.0,21,-99.99,,,0.00,512,weatherlink.com 1.10,2013-01-03 18:41:00,
2013-01-03 10:56:00,65.4,23.0,30.51,West,272,1.0,-999.0,20,-99.99,,,0.00,526,weatherlink.com 1.10,2013-01-03 18:56:00,
2013-01-03 11:11:00,65.4,22.0,30.50,WSW,241,3.0,-999.0,19,-99.99,,,0.00,536,weatherlink.com 1.10,2013-01-03 19:11:00,
2013-01-03 11:56:00,66.4,17.0,30.48,West,270,0.0,-999.0,15,-99.99,,,0.00,545,weatherlink.com 1.10,2013-01-03 19:56:00,
2013-01-03 12:11:00,67.0,16.0,30.46,West,270,0.0,-999.0,14,-99.99,,,0.00,541,weatherlink.com 1.10,2013-01-03 20:11:00,
2013-01-03 12:26:00,67.4,16.0,30.46,West,270,0.0,-999.0,14,-99.99,,,0.00,534,weatherlink.com 1.10,2013-01-03 20:26:00,
2013-01-03 12:41:00,67.0,19.0,30.45,West,274,0.0,-999.0,16,-99.99,,,0.00,522,weatherlink.com 1.10,2013-01-03 20:41:00,
2013-01-03 12:56:00,67.6,17.0,30.45,West,277,0.0,-999.0,14,-99.99,,,0.00,504,weatherlink.com 1.10,2013-01-03 20:56:00,
2013-01-03 13:11:00,67.7,17.0,30.45,West,277,0.0,-999.0,14,-99.99,,,0.00,485,weatherlink.com 1.10,2013-01-03 21:11:00,
2013-01-03 13:26:00,68.1,17.0,30.44,West,277,4.0,-999.0,14,-99.99,,,0.00,464,weatherlink.com 1.10,2013-01-03 21:26:00,
2013-01-03 13:41:00,68.3,19.0,30.44,West,277,0.0,-999.0,15,-99.99,,,0.00,439,weatherlink.com 1.10,2013-01-03 21:41:00,
2013-01-03 13:56:00,69.2,20.0,30.43,West,275,2.0,-999.0,15,-99.99,,,0.00,411,weatherlink.com 1.10,2013-01-03 21:56:00,
2013-01-03 14:11:00,69.5,20.0,30.44,West,275,0.0,-999.0,15,-99.99,,,0.00,380,weatherlink.com 1.10,2013-01-03 22:11:00,
2013-01-03 14:26:00,69.5,18.0,30.44,West,275,0.0,-999.0,14,-99.99,,,0.00,346,weatherlink.com 1.10,2013-01-03 22:26:00,
2013-01-03 14:41:00,69.2,18.0,30.44,West,275,0.0,-999.0,14,-99.99,,,0.00,311,weatherlink.com 1.10,2013-01-03 22:41:00,
2013-01-03 14:56:00,68.9,16.0,30.45,West,275,0.0,-999.0,13,-99.99,,,0.00,272,weatherlink.com 1.10,2013-01-03 22:56:00,
2013-01-03 15:26:00,69.0,16.0,30.45,West,275,0.0,-999.0,13,-99.99,,,0.00,179,weatherlink.com 1.10,2013-01-03 23:26:00,
2013-01-03 15:41:00,68.5,17.0,30.45,West,276,0.0,-999.0,14,-99.99,,,0.00,130,weatherlink.com 1.10,2013-01-03 23:41:00,
2013-01-03 15:56:00,67.7,15.0,30.45,West,278,0.0,-999.0,13,-99.99,,,0.00,83,weatherlink.com 1.10,2013-01-03 23:56:00,
2013-01-03 16:11:00,67.2,16.0,30.46,West,278,0.0,-999.0,14,-99.99,,,0.00,21,weatherlink.com 1.10,2013-01-04 00:11:00,
2013-01-03 16:26:00,66.0,18.0,30.46,West,278,0.0,-999.0,16,-99.99,,,0.00,14,weatherlink.com 1.10,2013-01-04 00:26:00,
2013-01-03 16:41:00,64.0,18.0,30.46,West,277,0.0,-999.0,17,-99.99,,,0.00,9,weatherlink.com 1.10,2013-01-04 00:41:00,
2013-01-03 16:56:00,61.7,18.0,30.46,West,277,0.0,-999.0,18,-99.99,,,0.00,0,weatherlink.com 1.10,2013-01-04 00:56:00,
2013-01-03 17:11:00,60.3,15.0,30.46,West,278,0.0,-999.0,17,-99.99,,,0.00,0,weatherlink.com 1.10,2013-01-04 01:11:00,
2013-01-03 17:26:00,59.0,17.0,30.47,West,278,0.0,-999.0,19,-99.99,,,0.00,0,weatherlink.com 1.10,2013-01-04 01:26:00,
2013-01-03 17:41:00,57.6,15.0,30.48,West,278,0.0,-999.0,19,-99.99,,,0.00,0,weatherlink.com 1.10,2013-01-04 01:41:00,
2013-01-03 17:56:00,56.1,19.0,30.48,West,278,0.0,-999.0,23,-99.99,,,0.00,0,weatherlink.com 1.10,2013-01-04 01:56:00,
2013-01-03 18:11:00,54.3,22.0,30.49,West,277,0.0,-999.0,28,-99.99,,,0.00,0,weatherlink.com 1.10,2013-01-04 02:11:00,
2013-01-03 18:26:00,52.3,21.0,30.50,West,277,0.0,-999.0,29,-99.99,,,0.00,0,weatherlink.com 1.10,2013-01-04 02:26:00,
2013-01-03 18:41:00,51.1,22.0,30.50,West,277,0.0,-999.0,32,-99.99,,,0.00,0,weatherlink.com 1.10,2013-01-04 02:41:00,
2013-01-03 18:56:00,50.3,18.0,30.51,West,278,0.0,-999.0,28,-99.99,,,0.00,0,weatherlink.com 1.10,2013-01-04 02:56:00,
2013-01-03 19:11:00,49.7,21.0,30.51,West,278,0.0,-999.0,33,-99.99,,,0.00,0,weatherlink.com 1.10,2013-01-04 03:11:00,
2013-01-03 19:26:00,49.2,20.0,30.51,West,278,0.0,-999.0,32,-99.99,,,0.00,0,weatherlink.com 1.10,2013-01-04 03:26:00,
2013-01-03 19:41:00,48.6,20.0,30.52,West,278,0.0,-999.0,32,-99.99,,,0.00,0,weatherlink.com 1.10,2013-01-04 03:41:00,
2013-01-03 19:56:00,48.4,21.0,30.52,West,278,0.0,-999.0,34,-99.99,,,0.00,0,weatherlink.com 1.10,2013-01-04 03:56:00,
2013-01-03 20:11:00,48.2,20.0,30.52,West,277,0.0,-999.0,33,-99.99,,,0.00,0,weatherlink.com 1.10,2013-01-04 04:11:00,
2013-01-03 20:26:00,49.1,17.0,30.52,West,277,0.0,-999.0,28,-99.99,,,0.00,0,weatherlink.com 1.10,2013-01-04 04:26:00,
2013-01-03 20:41:00,50.2,19.0,30.52,West,278,0.0,-999.0,29,-99.99,,,0.00,0,weatherlink.com 1.10,2013-01-04 04:41:00,
2013-01-03 20:56:00,48.5,21.0,30.52,West,278,0.0,-999.0,34,-99.99,,,0.00,0,weatherlink.com 1.10,2013-01-04 04:56:00,
2013-01-03 21:26:00,47.6,17.0,30.52,West,278,0.0,-999.0,30,-99.99,,,0.00,0,weatherlink.com 1.10,2013-01-04 05:26:00,
2013-01-03 21:41:00,46.8,21.0,30.53,West,277,0.0,-999.0,36,-99.99,,,0.00,0,weatherlink.com 1.10,2013-01-04 05:41:00,
2013-01-03 21:56:00,45.4,22.0,30.54,West,278,0.0,-999.0,39,-99.99,,,0.00,0,weatherlink.com 1.10,2013-01-04 05:56:00,
2013-01-03 22:11:00,44.4,22.0,30.54,West,278,0.0,-999.0,42,-99.99,,,0.00,0,weatherlink.com 1.10,2013-01-04 06:11:00,
2013-01-03 22:26:00,43.9,20.0,30.54,West,277,0.0,-999.0,38,-99.99,,,0.00,0,weatherlink.com 1.10,2013-01-04 06:26:00,
2013-01-03 22:41:00,44.4,19.0,30.54,West,277,0.0,-999.0,36,-99.99,,,0.00,0,weatherlink.com 1.10,2013-01-04 06:41:00,
2013-01-03 22:57:00,43.9,19.0,30.55,West,277,0.0,-999.0,37,-99.99,,,0.00,0,weatherlink.com 1.10,2013-01-04 06:57:00,
2013-01-03 23:12:00,44.7,19.0,30.54,West,278,0.0,-999.0,36,-99.99,,,0.00,0,weatherlink.com 1.10,2013-01-04 07:12:00,
2013-01-03 23:27:00,45.2,18.0,30.54,West,278,0.0,-999.0,34,-99.99,,,0.00,0,weatherlink.com 1.10,2013-01-04 07:27:00,
2013-01-03 23:42:00,45.0,21.0,30.55,West,278,0.0,-999.0,38,-99.99,,,0.00,0,weatherlink.com 1.10,2013-01-04 07:42:00,
2013-01-03 23:57:00,43.8,21.0,30.55,West,278,0.0,-999.0,41,-99.99,,,0.00,0,weatherlink.com 1.10,2013-01-04 07:57:00,